Station History

Weather Underground - logo

Station Historical Data
Daily Summary for January 26, 2018 Units:  English    Metric   Both
« Previous Day
Next Day »
Daily Weekly Monthly Yearly Custom
  High: Low: Average:
Temperature: TemperatureF °F 33.7 °F 44 °F
Dew Point: DewpointF °F 31.5 °F 37.7 °F
Humidity: Humidity % 50 % 80 %
Wind Speed: WindSpeedMPH mph 0.0 mph 0.7 mph
Wind Gust: WindSpeedGustMPH mph - -
Wind:- - South
Pressure: PressureIn in 30.25 in -
Precipitation: 0.00 in    
Historical Graphs
 
 
Tabular Data for January 26, 2018
Time Temperature Dew Point Pressure Wind Wind Speed Wind Gust Humidity Rainfall Rate (Hourly)
TemperatureF °F DewpointF °F PressureIn in Calm     Humidity % HourlyPrecipIn in
00:00 37.4 °F 34.7 °F 30.25 in Calm     90 % 0.00 in
00:05 37.2 °F 34.8 °F 30.25 in Calm     91 % 0.00 in
00:10 37.1 °F 34.7 °F 30.25 in Calm     91 % 0.00 in
00:15 37.0 °F 34.6 °F 30.25 in Calm     91 % 0.00 in
00:20 36.8 °F 34.4 °F 30.25 in Calm     91 % 0.00 in
00:25 36.5 °F 34.1 °F 30.25 in Calm     91 % 0.00 in
00:30 36.1 °F 33.7 °F 30.25 in Calm     91 % 0.00 in
00:35 36.1 °F 34.0 °F 30.25 in Calm     92 % 0.00 in
00:40 36.0 °F 33.9 °F 30.25 in Calm     92 % 0.00 in
00:45 36.0 °F 33.9 °F 30.25 in Calm     92 % 0.00 in
00:51 36.1 °F 34.3 °F 30.26 in Calm     93 % 0.00 in
00:56 36.2 °F 34.4 °F 30.26 in Calm     93 % 0.00 in
01:01 36.4 °F 34.6 °F 30.26 in Calm     93 % 0.00 in
01:06 36.3 °F 34.5 °F 30.26 in Calm     93 % 0.00 in
01:11 36.5 °F 34.7 °F 30.26 in East 1.2 mph   93 % 0.00 in
01:16 36.6 °F 34.8 °F 30.26 in Calm     93 % 0.00 in
01:21 36.7 °F 34.9 °F 30.26 in Calm     93 % 0.00 in
01:26 36.7 °F 34.9 °F 30.26 in Calm     93 % 0.00 in
01:31 36.5 °F 34.4 °F 30.26 in Calm     92 % 0.00 in
01:36 36.5 °F 34.4 °F 30.26 in Calm     92 % 0.00 in
01:41 36.5 °F 34.4 °F 30.27 in Calm     92 % 0.00 in
01:46 36.6 °F 34.5 °F 30.27 in Calm     92 % 0.00 in
01:51 36.4 °F 34.3 °F 30.27 in Calm     92 % 0.00 in
01:56 36.1 °F 33.7 °F 30.27 in Calm     91 % 0.00 in
02:01 36.1 °F 34.0 °F 30.27 in Calm     92 % 0.00 in
02:06 36.0 °F 33.9 °F 30.27 in East 6.9 mph 6.9 mph 92 % 0.00 in
02:11 36.1 °F 34.3 °F 30.27 in Calm     93 % 0.00 in
02:16 36.0 °F 33.9 °F 30.27 in Calm     92 % 0.00 in
02:21 35.9 °F 33.8 °F 30.27 in Calm     92 % 0.00 in
02:26 35.7 °F 33.6 °F 30.27 in Calm     92 % 0.00 in
02:31 35.6 °F 33.5 °F 30.27 in Calm     92 % 0.00 in
02:36 35.3 °F 33.2 °F 30.27 in Calm     92 % 0.00 in
02:41 35.1 °F 33.0 °F 30.27 in Calm     92 % 0.00 in
02:46 35.2 °F 33.4 °F 30.27 in Calm     93 % 0.00 in
02:51 35.6 °F 33.8 °F 30.27 in Calm     93 % 0.00 in
02:56 36.0 °F 34.2 °F 30.27 in Calm     93 % 0.00 in
03:01 36.1 °F 34.3 °F 30.27 in Calm     93 % 0.00 in
03:06 36.0 °F 33.9 °F 30.27 in Calm     92 % 0.00 in
03:11 35.9 °F 33.8 °F 30.27 in Calm     92 % 0.00 in
03:16 35.7 °F 33.3 °F 30.27 in Calm     91 % 0.00 in
03:21 35.6 °F 33.2 °F 30.27 in Calm     91 % 0.00 in
03:26 35.4 °F 33.0 °F 30.27 in Calm     91 % 0.00 in
03:31 35.1 °F 32.7 °F 30.27 in Calm     91 % 0.00 in
03:36 34.9 °F 32.5 °F 30.27 in Calm     91 % 0.00 in
03:41 34.8 °F 32.4 °F 30.28 in Calm     91 % 0.00 in
03:46 34.7 °F 32.6 °F 30.28 in Calm     92 % 0.00 in
03:51 34.7 °F 32.6 °F 30.28 in Calm     92 % 0.00 in
03:56 34.7 °F 32.6 °F 30.28 in Calm     92 % 0.00 in
04:01 34.9 °F 32.8 °F 30.28 in Calm     92 % 0.00 in
04:06 35.0 °F 32.9 °F 30.28 in Calm     92 % 0.00 in
04:11 34.9 °F 32.8 °F 30.28 in Calm     92 % 0.00 in
04:16 34.9 °F 32.8 °F 30.28 in Calm     92 % 0.00 in
04:21 34.8 °F 32.7 °F 30.28 in Calm     92 % 0.00 in
04:26 35.0 °F 32.9 °F 30.28 in Calm     92 % 0.00 in
04:31 35.3 °F 33.2 °F 30.29 in Calm     92 % 0.00 in
04:36 35.4 °F 33.3 °F 30.28 in Calm     92 % 0.00 in
04:41 35.3 °F 33.2 °F 30.29 in East 1.0 mph   92 % 0.00 in
04:46 35.4 °F 33.3 °F 30.29 in Calm     92 % 0.00 in
04:51 35.4 °F 33.3 °F 30.29 in Calm     92 % 0.00 in
04:56 35.4 °F 33.3 °F 30.29 in Calm     92 % 0.00 in
05:01 35.1 °F 32.7 °F 30.29 in Calm     91 % 0.00 in
05:06 34.9 °F 32.8 °F 30.29 in Calm     92 % 0.00 in
05:11 34.8 °F 32.7 °F 30.30 in Calm     92 % 0.00 in
05:16 35.0 °F 32.9 °F 30.30 in Calm     92 % 0.00 in
05:21 34.8 °F 32.7 °F 30.30 in Calm     92 % 0.00 in
05:26 34.5 °F 32.4 °F 30.30 in Calm     92 % 0.00 in
05:31 34.4 °F 32.3 °F 30.30 in Calm     92 % 0.00 in
05:36 34.3 °F 32.2 °F 30.31 in Calm     92 % 0.00 in
05:41 34.1 °F 32.0 °F 30.31 in Calm     92 % 0.00 in
05:46 34.2 °F 32.4 °F 30.31 in Calm     93 % 0.00 in
05:51 34.0 °F 32.2 °F 30.31 in Calm     93 % 0.00 in
05:56 34.3 °F 32.5 °F 30.31 in Calm     93 % 0.00 in
06:01 34.8 °F 33.2 °F 30.31 in Calm     94 % 0.00 in
06:06 35.0 °F 33.2 °F 30.31 in Calm     93 % 0.00 in
06:11 35.1 °F 33.3 °F 30.32 in Calm     93 % 0.00 in
06:16 35.0 °F 32.9 °F 30.32 in Calm     92 % 0.00 in
06:21 34.6 °F 32.2 °F 30.32 in Calm   0.1 mph 91 % 0.00 in
06:26 34.4 °F 32.3 °F 30.32 in Calm     92 % 0.00 in
06:32 34.3 °F 32.2 °F 30.32 in Calm     92 % 0.00 in
06:37 34.3 °F 32.2 °F 30.33 in East 1.0 mph 1.0 mph 92 % 0.00 in
06:42 34.3 °F 32.2 °F 30.33 in Calm     92 % 0.00 in
06:47 34.4 °F 32.3 °F 30.33 in Calm     92 % 0.00 in
06:52 34.3 °F 32.2 °F 30.33 in East 1.2 mph 1.2 mph 92 % 0.00 in
06:57 34.1 °F 32.0 °F 30.34 in Calm     92 % 0.00 in
07:02 34.0 °F 31.6 °F 30.34 in Calm     91 % 0.00 in
07:07 33.8 °F 31.5 °F 30.34 in Calm     91 % 0.00 in
07:12 33.7 °F 31.6 °F 30.34 in Calm     92 % 0.00 in
07:17 34.0 °F 31.9 °F 30.34 in Calm     92 % 0.00 in
07:22 34.3 °F 32.2 °F 30.34 in East 1.2 mph   92 % 0.00 in
07:27 34.6 °F 32.5 °F 30.35 in Calm     92 % 0.00 in
07:32 35.0 °F 33.2 °F 30.35 in Calm     93 % 0.00 in
07:37 35.4 °F 33.6 °F 30.36 in East 1.2 mph   93 % 0.00 in
07:42 35.7 °F 33.9 °F 30.36 in East 1.2 mph   93 % 0.00 in
07:47 36.0 °F 33.9 °F 30.36 in Calm     92 % 0.00 in
07:52 36.3 °F 34.2 °F 30.36 in East 1.0 mph   92 % 0.00 in
07:57 36.7 °F 34.9 °F 30.36 in East 1.2 mph 1.2 mph 93 % 0.00 in
08:02 37.3 °F 35.2 °F 30.36 in East 1.2 mph   92 % 0.00 in
08:07 38.0 °F 35.9 °F 30.37 in East 1.2 mph   92 % 0.00 in
08:12 38.7 °F 36.6 °F 30.37 in East 1.2 mph 1.2 mph 92 % 0.00 in
08:17 39.3 °F 36.9 °F 30.37 in SE 1.2 mph 1.2 mph 91 % 0.00 in
08:22 39.8 °F 37.4 °F 30.37 in Calm     91 % 0.00 in
08:27 40.6 °F 38.2 °F 30.38 in SE 1.2 mph   91 % 0.00 in
08:32 41.2 °F 38.5 °F 30.38 in SE 1.2 mph   90 % 0.00 in
08:37 41.7 °F 39.0 °F 30.38 in SE 1.2 mph 1.2 mph 90 % 0.00 in
08:42 42.1 °F 39.1 °F 30.38 in ESE 2.3 mph 2.3 mph 89 % 0.00 in
08:47 42.6 °F 39.6 °F 30.38 in ESE 3.5 mph 3.5 mph 89 % 0.00 in
08:52 42.9 °F 39.9 °F 30.39 in SE 2.3 mph 2.3 mph 89 % 0.00 in
08:57 43.4 °F 40.1 °F 30.39 in East 2.3 mph 2.3 mph 88 % 0.00 in
09:02 43.8 °F 40.2 °F 30.39 in ESE 3.5 mph 3.5 mph 87 % 0.00 in
09:07 43.9 °F 40.3 °F 30.39 in SSE 2.3 mph 2.3 mph 87 % 0.00 in
09:12 44.1 °F 40.5 °F 30.39 in ENE 1.2 mph 1.2 mph 87 % 0.00 in
09:17 44.4 °F 40.8 °F 30.39 in South 2.3 mph 2.3 mph 87 % 0.00 in
09:22 44.7 °F 40.8 °F 30.39 in SE 2.3 mph 2.3 mph 86 % 0.00 in
09:27 44.8 °F 40.9 °F 30.40 in SSE 1.2 mph 1.2 mph 86 % 0.00 in
09:32 45.4 °F 41.5 °F 30.39 in SE 2.3 mph 2.3 mph 86 % 0.00 in
09:37 45.6 °F 41.4 °F 30.40 in ENE 4.6 mph 4.6 mph 85 % 0.00 in
09:42 46.1 °F 42.1 °F 30.40 in ESE 2.3 mph 2.3 mph 86 % 0.00 in
09:47 46.8 °F 42.5 °F 30.40 in SSE 4.0 mph 4.0 mph 85 % 0.00 in
09:52 47.2 °F 42.6 °F 30.41 in NE 4.6 mph 4.6 mph 84 % 0.00 in
09:57 47.5 °F 42.6 °F 30.41 in SSE 3.5 mph 3.5 mph 83 % 0.00 in
10:02 47.9 °F 43.0 °F 30.41 in SE 2.3 mph 2.3 mph 83 % 0.00 in
10:07 48.2 °F 42.6 °F 30.41 in South 3.5 mph 3.5 mph 81 % 0.00 in
10:12 48.8 °F 43.2 °F 30.41 in ENE 3.5 mph 3.5 mph 81 % 0.00 in
10:17 49.1 °F 43.2 °F 30.41 in SE 2.3 mph 2.3 mph 80 % 0.00 in
10:22 49.7 °F 43.8 °F 30.41 in ENE 1.2 mph 1.2 mph 80 % 0.00 in
10:27 50.3 °F 44.0 °F 30.41 in SE 1.2 mph   79 % 0.00 in
10:32 50.8 °F 43.8 °F 30.41 in Calm     77 % 0.00 in
10:37 51.1 °F 43.8 °F 30.41 in SSE 3.5 mph 3.5 mph 76 % 0.00 in
10:42 51.4 °F 44.1 °F 30.41 in SE 2.3 mph 2.3 mph 76 % 0.00 in
10:47 51.4 °F 43.7 °F 30.41 in SSW 3.5 mph 3.5 mph 75 % 0.00 in
10:52 51.9 °F 43.9 °F 30.41 in SSE 2.3 mph 2.3 mph 74 % 0.00 in
10:57 52.0 °F 44.3 °F 30.41 in South 1.2 mph 1.2 mph 75 % 0.00 in
11:02 52.2 °F 43.8 °F 30.41 in SSE 3.5 mph 3.5 mph 73 % 0.00 in
11:07 52.2 °F 44.2 °F 30.41 in NE 2.3 mph   74 % 0.00 in
11:12 52.5 °F 44.1 °F 30.41 in ESE 3.5 mph   73 % 0.00 in
11:17 52.8 °F 44.4 °F 30.41 in SSE 2.3 mph   73 % 0.00 in
11:22 53.2 °F 44.0 °F 30.41 in Calm     71 % 0.00 in
11:27 53.3 °F 43.8 °F 30.40 in SE 2.3 mph 2.3 mph 70 % 0.00 in
11:32 53.4 °F 44.2 °F 30.40 in SE 1.2 mph   71 % 0.00 in
11:37 53.8 °F 44.2 °F 30.40 in SE 3.5 mph 3.5 mph 70 % 0.00 in
11:42 53.7 °F 43.4 °F 30.39 in NW 1.2 mph 1.2 mph 68 % 0.00 in
11:47 53.5 °F 44.0 °F 30.39 in NNW 1.2 mph 1.2 mph 70 % 0.00 in
11:52 53.9 °F 44.3 °F 30.39 in ENE 3.5 mph 3.5 mph 70 % 0.00 in
11:58 54.0 °F 43.3 °F 30.39 in NNW 2.3 mph 2.3 mph 67 % 0.00 in
12:02 54.0 °F 44.1 °F 30.38 in SE 3.5 mph 3.5 mph 69 % 0.00 in
12:07 54.2 °F 43.9 °F 30.38 in NNW 2.3 mph 2.3 mph 68 % 0.00 in
12:12 53.9 °F 42.8 °F 30.37 in NNW 2.3 mph 2.3 mph 66 % 0.00 in
12:17 54.0 °F 43.3 °F 30.37 in ENE 3.5 mph 3.5 mph 67 % 0.00 in
12:23 54.5 °F 43.4 °F 30.37 in Calm     66 % 0.00 in
12:28 54.8 °F 43.7 °F 30.37 in NW 1.2 mph 1.2 mph 66 % 0.00 in
12:33 54.8 °F 44.0 °F 30.36 in Calm     67 % 0.00 in
12:38 54.9 °F 43.4 °F 30.36 in WNW 1.2 mph 1.2 mph 65 % 0.00 in
12:43 55.1 °F 43.5 °F 30.36 in West 2.3 mph 2.3 mph 65 % 0.00 in
12:48 54.9 °F 43.7 °F 30.36 in West 2.3 mph 2.3 mph 66 % 0.00 in
12:53 55.1 °F 43.9 °F 30.36 in SSE 2.3 mph 2.3 mph 66 % 0.00 in
12:58 55.7 °F 43.7 °F 30.35 in ESE 1.0 mph 1.0 mph 64 % 0.00 in
13:03 55.9 °F 43.5 °F 30.35 in WNW 2.3 mph 2.3 mph 63 % 0.00 in
13:08 55.8 °F 43.4 °F 30.35 in WSW 2.3 mph 2.3 mph 63 % 0.00 in
13:13 55.8 °F 43.8 °F 30.34 in WNW 1.0 mph 1.0 mph 64 % 0.00 in
13:18 55.9 °F 43.1 °F 30.34 in West 1.2 mph 1.2 mph 62 % 0.00 in
13:23 56.7 °F 44.7 °F 30.34 in Calm     64 % 0.00 in
13:28 57.4 °F 44.1 °F 30.34 in East 2.3 mph 2.3 mph 61 % 0.00 in
13:33 57.8 °F 43.1 °F 30.34 in West 2.3 mph 2.3 mph 58 % 0.00 in
13:38 57.4 °F 42.3 °F 30.34 in Calm     57 % 0.00 in
13:43 57.6 °F 42.9 °F 30.33 in Calm     58 % 0.00 in
13:48 57.3 °F 42.6 °F 30.34 in NW 2.3 mph 2.3 mph 58 % 0.00 in
13:53 57.3 °F 42.2 °F 30.33 in WSW 1.2 mph   57 % 0.00 in
13:58 57.5 °F 42.4 °F 30.33 in ESE 3.5 mph 3.5 mph 57 % 0.00 in
14:03 58.0 °F 41.9 °F 30.33 in Calm   0.1 mph 55 % 0.00 in
14:08 57.8 °F 41.7 °F 30.33 in East 1.2 mph 1.2 mph 55 % 0.00 in
14:13 57.6 °F 41.1 °F 30.33 in NW 2.3 mph 2.3 mph 54 % 0.00 in
14:18 57.1 °F 41.1 °F 30.33 in West 2.3 mph 2.3 mph 55 % 0.00 in
14:23 56.9 °F 40.9 °F 30.33 in NW 1.2 mph 1.2 mph 55 % 0.00 in
14:28 57.0 °F 41.9 °F 30.33 in SSW 2.3 mph 2.3 mph 57 % 0.00 in
14:33 57.3 °F 40.8 °F 30.33 in ESE 1.2 mph 1.2 mph 54 % 0.00 in
14:38 57.4 °F 42.3 °F 30.33 in SSE 3.5 mph 3.5 mph 57 % 0.00 in
14:43 57.4 °F 40.9 °F 30.33 in Calm     54 % 0.00 in
14:48 57.5 °F 41.4 °F 30.33 in South 1.2 mph   55 % 0.00 in
14:53 57.6 °F 41.1 °F 30.33 in Calm     54 % 0.00 in
14:58 57.1 °F 40.6 °F 30.33 in NW 2.3 mph   54 % 0.00 in
15:03 56.8 °F 41.3 °F 30.33 in Calm     56 % 0.00 in
15:08 57.1 °F 41.5 °F 30.32 in NW 1.2 mph   56 % 0.00 in
15:13 57.1 °F 41.5 °F 30.33 in SSE 1.2 mph 1.2 mph 56 % 0.00 in
15:18 57.1 °F 40.6 °F 30.33 in Calm     54 % 0.00 in
15:23 57.0 °F 39.0 °F 30.33 in WNW 1.2 mph 1.2 mph 51 % 0.00 in
15:28 56.9 °F 38.4 °F 30.32 in NW 1.2 mph 1.2 mph 50 % 0.00 in
15:33 56.8 °F 38.9 °F 30.33 in NW 2.3 mph 2.3 mph 51 % 0.00 in
15:38 56.7 °F 38.8 °F 30.33 in Calm     51 % 0.00 in
15:43 56.5 °F 38.6 °F 30.33 in NW 1.2 mph   51 % 0.00 in
15:48 56.4 °F 39.5 °F 30.33 in Calm     53 % 0.00 in
15:53 56.3 °F 38.4 °F 30.33 in Calm     51 % 0.00 in
15:58 56.2 °F 38.3 °F 30.33 in WNW 1.2 mph 1.2 mph 51 % 0.00 in
16:03 56.2 °F 38.3 °F 30.32 in NNW 1.2 mph   51 % 0.00 in
16:08 56.0 °F 38.6 °F 30.32 in NW 1.0 mph 1.0 mph 52 % 0.00 in
16:13 55.8 °F 37.9 °F 30.32 in WNW 1.2 mph   51 % 0.00 in
16:18 55.7 °F 37.8 °F 30.32 in Calm     51 % 0.00 in
16:23 55.6 °F 38.2 °F 30.32 in Calm     52 % 0.00 in
16:28 55.6 °F 38.2 °F 30.32 in NW 1.2 mph 1.2 mph 52 % 0.00 in
16:33 55.5 °F 39.1 °F 30.33 in NW 1.2 mph   54 % 0.00 in
16:38 55.3 °F 38.9 °F 30.33 in Calm     54 % 0.00 in
16:43 55.1 °F 39.2 °F 30.33 in NW 1.2 mph 1.2 mph 55 % 0.00 in
16:48 55.0 °F 39.6 °F 30.33 in NW 2.3 mph 2.3 mph 56 % 0.00 in
16:53 54.7 °F 39.3 °F 30.33 in SW 1.2 mph 1.2 mph 56 % 0.00 in
16:58 54.1 °F 39.6 °F 30.33 in Calm     58 % 0.00 in
17:03 53.6 °F 39.6 °F 30.33 in Calm     59 % 0.00 in
17:08 53.1 °F 40.0 °F 30.33 in Calm     61 % 0.00 in
17:13 52.5 °F 39.8 °F 30.33 in Calm     62 % 0.00 in
17:18 52.1 °F 39.9 °F 30.33 in Calm     63 % 0.00 in
17:23 51.6 °F 39.8 °F 30.32 in Calm     64 % 0.00 in
17:28 51.1 °F 39.7 °F 30.33 in Calm     65 % 0.00 in
17:33 50.6 °F 39.7 °F 30.33 in Calm     66 % 0.00 in
17:38 50.1 °F 39.6 °F 30.33 in Calm     67 % 0.00 in
17:43 49.7 °F 39.6 °F 30.33 in Calm     68 % 0.00 in
17:48 49.3 °F 39.6 °F 30.33 in Calm     69 % 0.00 in
18:03 48.8 °F 39.4 °F 30.34 in Calm     70 % 0.00 in
18:08 48.7 °F 39.4 °F 30.34 in Calm     70 % 0.00 in
18:13 48.5 °F 39.5 °F 30.34 in Calm     71 % 0.00 in
18:18 48.5 °F 39.5 °F 30.35 in Calm     71 % 0.00 in
18:23 48.5 °F 39.5 °F 30.35 in Calm     71 % 0.00 in
18:24 48.4 °F 39.4 °F 30.35 in Calm     71 % 0.00 in
18:29 48.3 °F 39.7 °F 30.35 in Calm     72 % 0.00 in
18:34 47.9 °F 39.7 °F 30.36 in Calm     73 % 0.00 in
18:39 47.7 °F 39.8 °F 30.36 in Calm     74 % 0.00 in
18:44 47.4 °F 39.5 °F 30.36 in Calm     74 % 0.00 in
18:49 47.0 °F 39.5 °F 30.36 in Calm     75 % 0.00 in
18:54 46.5 °F 39.7 °F 30.36 in Calm     77 % 0.00 in
18:59 46.3 °F 39.5 °F 30.36 in Calm     77 % 0.00 in
19:04 45.9 °F 39.4 °F 30.36 in Calm     78 % 0.00 in
19:09 45.6 °F 39.5 °F 30.36 in Calm     79 % 0.00 in
19:14 45.3 °F 39.5 °F 30.36 in Calm     80 % 0.00 in
19:19 45.2 °F 39.7 °F 30.36 in Calm     81 % 0.00 in
19:24 45.6 °F 40.1 °F 30.36 in Calm     81 % 0.00 in
19:29 45.6 °F 39.8 °F 30.36 in Calm     80 % 0.00 in
19:34 45.5 °F 39.7 °F 30.36 in Calm     80 % 0.00 in
19:39 45.2 °F 39.4 °F 30.36 in Calm     80 % 0.00 in
19:44 44.9 °F 39.4 °F 30.36 in Calm     81 % 0.00 in
19:49 44.6 °F 39.4 °F 30.36 in Calm     82 % 0.00 in
19:54 44.5 °F 39.3 °F 30.36 in Calm     82 % 0.00 in
19:59 44.3 °F 39.5 °F 30.36 in Calm     83 % 0.00 in
20:04 44.1 °F 39.3 °F 30.36 in Calm     83 % 0.00 in
20:09 43.6 °F 38.8 °F 30.37 in Calm     83 % 0.00 in
20:14 43.3 °F 38.8 °F 30.37 in Calm     84 % 0.00 in
20:19 43.0 °F 38.5 °F 30.37 in Calm     84 % 0.00 in
20:24 42.5 °F 38.0 °F 30.37 in Calm     84 % 0.00 in
20:29 42.2 °F 38.0 °F 30.37 in Calm     85 % 0.00 in
20:34 42.0 °F 38.1 °F 30.37 in Calm     86 % 0.00 in
20:39 41.8 °F 37.9 °F 30.37 in Calm     86 % 0.00 in
20:44 41.6 °F 38.0 °F 30.37 in Calm     87 % 0.00 in
20:49 41.5 °F 37.9 °F 30.38 in Calm     87 % 0.00 in
20:54 41.3 °F 37.7 °F 30.38 in Calm     87 % 0.00 in
20:59 41.2 °F 37.6 °F 30.38 in Calm     87 % 0.00 in
21:04 41.3 °F 38.0 °F 30.38 in Calm     88 % 0.00 in
21:10 41.2 °F 37.9 °F 30.38 in Calm     88 % 0.00 in
21:15 41.0 °F 37.7 °F 30.38 in Calm     88 % 0.00 in
21:20 41.1 °F 38.1 °F 30.38 in Calm     89 % 0.00 in
21:25 41.3 °F 38.3 °F 30.38 in Calm     89 % 0.00 in
21:30 41.5 °F 38.5 °F 30.38 in Calm     89 % 0.00 in
21:35 41.4 °F 38.1 °F 30.38 in West 1.2 mph   88 % 0.00 in
21:40 40.9 °F 37.6 °F 30.38 in Calm     88 % 0.00 in
21:45 40.5 °F 37.5 °F 30.38 in Calm     89 % 0.00 in
21:50 40.2 °F 37.2 °F 30.38 in Calm     89 % 0.00 in
21:55 40.1 °F 37.4 °F 30.38 in Calm     90 % 0.00 in
22:00 40.0 °F 37.3 °F 30.38 in Calm     90 % 0.00 in
22:05 39.9 °F 37.5 °F 30.38 in Calm     91 % 0.00 in
22:10 39.8 °F 37.4 °F 30.38 in Calm     91 % 0.00 in
22:15 39.7 °F 37.3 °F 30.38 in Calm     91 % 0.00 in
22:20 39.6 °F 37.2 °F 30.38 in Calm     91 % 0.00 in
22:25 39.5 °F 37.1 °F 30.38 in Calm     91 % 0.00 in
22:30 39.4 °F 37.0 °F 30.38 in Calm     91 % 0.00 in
22:35 39.1 °F 36.7 °F 30.39 in Calm     91 % 0.00 in
22:40 39.1 °F 36.7 °F 30.39 in Calm     91 % 0.00 in
22:45 39.3 °F 37.2 °F 30.39 in Calm     92 % 0.00 in
22:50 39.6 °F 37.2 °F 30.39 in Calm     91 % 0.00 in
22:55 39.7 °F 37.0 °F 30.39 in Calm     90 % 0.00 in
23:00 39.7 °F 37.0 °F 30.39 in Calm     90 % 0.00 in
23:05 39.7 °F 37.0 °F 30.39 in Calm     90 % 0.00 in
23:10 39.7 °F 37.0 °F 30.39 in Calm     90 % 0.00 in
23:15 39.7 °F 37.0 °F 30.39 in Calm     90 % 0.00 in
23:20 39.7 °F 37.0 °F 30.39 in North 1.2 mph 1.2 mph 90 % 0.00 in
23:25 39.8 °F 37.1 °F 30.39 in North 1.2 mph 1.2 mph 90 % 0.00 in
23:30 39.8 °F 36.8 °F 30.39 in Calm     89 % 0.00 in
23:35 39.8 °F 36.8 °F 30.38 in North 1.2 mph   89 % 0.00 in
23:40 39.9 °F 36.9 °F 30.39 in Calm     89 % 0.00 in
23:45 39.8 °F 37.1 °F 30.40 in Calm     90 % 0.00 in
23:50 39.6 °F 36.6 °F 30.39 in Calm     89 % 0.00 in
23:55 39.3 °F 36.6 °F 30.39 in Calm     90 % 0.00 in
Park Place, Exeter, Tulare County, California, USA
Compliments of Weather Underground - 2.75 mb